• Join FlightAware (Why Join?)
  • Login
  • US Flag 
09:21AM EDT


 

Airport Tracker/Info


-or-


 

Live Flight TrackerFlight Track Log ✈ JBU348 ✈ 19-Apr-2013 ✈ KSRQ - KJFK

Flight Track Log - Related Links

Times and Time Zones

All times are in EDT time to prevent confusion due to time zone crossing. See the JBU348 flight status page for this flight to view local times or setup timezone preferences in your user account.

Time Position Orientation Groundspeed Altitude Reporting Facility
EDT Latitude Longitude Course Direction KTS MPH feet Rate Location/Type
09:20PM 27.3833 -82.5500 North 161 185 700  Level Tampa TRACON
09:21PM 27.3667 -82.5000 111° Southeast 178 205 1,900 1,620 Climbing Tampa TRACON
09:21PM 27.3167 -82.4500 138° Southeast 247 284 3,700 2,520 Climbing Tampa TRACON
09:22PM 27.2833 -82.5000 233° Southwest 267 307 6,700 2,400 Climbing Tampa TRACON
09:23PM 27.7369 -82.7833 North  Level FlightAware Approximate
09:24PM 27.8647 -82.7833 North  Level FlightAware Approximate
09:25PM 27.9924 -82.7833 North  Level FlightAware Approximate
09:25PM 27.4222 -82.6047 326° Northwest 276 318 11,300  Level Miami Center
09:26PM 27.5208 -82.6400 342° North 325 374 13,900 2,460 Climbing Miami Center
09:27PM 27.6175 -82.6778 341° North 354 407 16,300 1,860 Climbing Miami Center
09:28PM 27.7764 -82.7425 340° North 374 430 18,900 1,680 Climbing Jacksonville Center
09:29PM 27.8828 -82.7822 342° North 390 449 20,900 1,800 Climbing Jacksonville Center
09:30PM 28.0017 -82.7892 357° North 411 473 22,500 1,560 Climbing Jacksonville Center
09:31PM 28.1186 -82.7892 360° North 411 473 24,100 1,440 Climbing Jacksonville Center
09:32PM 28.2356 -82.8125 350° North 423 487 25,400 1,260 Climbing Jacksonville Center
09:33PM 28.3544 -82.8478 345° North 429 494 26,700 1,260 Climbing Jacksonville Center
09:34PM 28.4733 -82.8808 346° North 429 494 28,000 1,560 Climbing Jacksonville Center
09:35PM 28.5922 -82.9139 346° North 434 499 29,800 1,440 Climbing Jacksonville Center
09:36PM 28.7050 -82.9447 347° North 429 494 30,900 1,140 Climbing Jacksonville Center
09:37PM 28.8197 -82.9803 345° North 423 487 32,100 1,020 Climbing Jacksonville Center
09:38PM 28.9386 -83.0136 346° North 423 487 33,000 1,140 Climbing Jacksonville Center
09:39PM 29.0536 -83.0469 346° North 423 487 34,500 1,440 Climbing Jacksonville Center
09:40PM 29.1642 -83.0781 346° North 417 480 35,900 720 Climbing Jacksonville Center
09:41PM 29.2747 -83.1117 345° North 412 474 36,000  Climbing Jacksonville Center
09:42PM 29.3936 -83.1453 346° North 418 481 36,000  Level Jacksonville Center
09:43PM 29.5147 -83.1814 345° North 426 490 36,000  Level Jacksonville Center
09:44PM 29.6314 -83.2153 346° North 433 498 36,000  Level Jacksonville Center
09:45PM 29.7483 -83.2514 345° North 433 498 36,000  Level Jacksonville Center
09:46PM 29.8817 -83.2903 346° North 433 498 36,000  Level Jacksonville Center
09:47PM 30.0006 -83.3242 346° North 433 498 36,000  Level Jacksonville Center
09:48PM 30.1217 -83.3608 345° North 433 498 36,000  Level Jacksonville Center
09:49PM 30.2383 -83.3928 347° North 433 498 36,000  Level Jacksonville Center
09:50PM 30.3594 -83.4294 345° North 433 498 36,000  Level Jacksonville Center
09:51PM 30.4761 -83.4614 347° North 433 498 36,000  Level Jacksonville Center
09:52PM 30.5969 -83.4983 345° North 433 498 36,000  Level Jacksonville Center
09:53PM 30.7139 -83.5353 345° North 433 498 36,000  Level Jacksonville Center
09:54PM 30.8283 -83.5675 346° North 428 493 36,000  Level Jacksonville Center
09:55PM 30.9453 -83.6047 345° North 423 487 36,000  Level Jacksonville Center
09:56PM 31.0597 -83.6394 345° North 423 487 36,000  Level Jacksonville Center
09:58PM 31.2244 -83.6892 346° North 409 471 36,000  Level Atlanta Center
09:59PM 31.3392 -83.7253 345° North 415 478 36,000  Level Atlanta Center
10:00PM 31.4542 -83.7589 346° North 415 478 36,000  Level Atlanta Center
10:01PM 31.5689 -83.7975 344° North 415 478 36,000  Level Atlanta Center
10:02PM 31.6922 -83.8314 347° North 423 487 36,000 180 Level Atlanta Center
10:03PM 31.8361 -83.8653 349° North 452 520 36,400 540 Climbing Atlanta Center
10:04PM 31.9656 -83.8625 North 462 532 37,100 780 Climbing Atlanta Center
10:05PM 32.0992 -83.8622 360° North 462 532 38,000 420 Climbing Atlanta Center
10:06PM 32.2286 -83.8619 360° North 462 532 38,000  Level Atlanta Center
10:07PM 32.3600 -83.8642 359° North 462 532 38,000  Level Atlanta Center
10:08PM 32.4936 -83.8639 360° North 462 532 38,000  Level Atlanta Center
10:09PM 32.6272 -83.8686 358° North 474 545 38,000  Level Atlanta Center
10:10PM 32.7631 -83.8708 359° North 479 551 38,000  Level Atlanta Center
10:11PM 32.8967 -83.8781 357° North 479 551 38,000  Level Atlanta Center
10:12PM 33.0303 -83.8853 357° North 479 551 38,000  Level Atlanta Center
10:13PM 33.1639 -83.8950 357° North 479 551 38,000  Level Atlanta Center
10:14PM 33.2994 -83.9069 356° North 479 551 38,000  Level Atlanta Center
10:15PM 33.4331 -83.9144 357° North 479 551 38,000  Level Atlanta Center
10:16PM 33.5708 -83.9267 356° North 479 551 38,000  Level Atlanta Center
10:17PM 33.7086 -83.9339 358° North 479 551 38,000  Level Atlanta Center
10:18PM 33.8297 -83.9414 357° North 484 557 38,000  Level Atlanta Center
10:19PM 33.9694 -83.9511 357° North 489 563 38,000  Level Atlanta Center
10:20PM 34.1072 -83.9611 357° North 496 571 38,000  Level Atlanta Center
10:21PM 34.2472 -83.9733 356° North 496 571 38,000  Level Atlanta Center
10:22PM 34.3869 -83.9833 357° North 502 578 38,000  Level Atlanta Center
10:23PM 34.5247 -83.9933 357° North 496 571 38,000  Level Atlanta Center
10:24PM 34.6814 -84.0033 357° North 501 577 38,000  Level Atlanta Center
10:25PM 34.8064 -84.0161 355° North 501 577 38,000  Level Atlanta Center
10:26PM 34.9464 -84.0261 357° North 501 577 38,000  Level Atlanta Center
10:27PM 35.0881 -84.0361 357° North 501 577 38,000  Level Atlanta Center
10:28PM 35.2300 -84.0489 356° North 501 577 38,000  Level Atlanta Center
10:29PM 35.3761 -84.0592 357° North 506 582 38,000  Level Atlanta Center
10:30PM 35.5181 -84.0694 357° North 506 582 38,000  Level Atlanta Center
10:31PM 35.6597 -84.0769 358° North 506 582 38,000  Level Atlanta Center
10:32PM 35.8058 -84.0900 356° North 516 594 38,000  Level Atlanta Center
10:33PM 35.9519 -84.1003 357° North 516 594 38,000  Level Atlanta Center
10:35PM 36.2050 -84.1189 357° North 519 597 38,000  Level Indianapolis Center
10:36PM 36.3481 -84.1297 357° North 517 595 38,000  Level Indianapolis Center
10:37PM 36.4903 -84.1400 357° North 515 593 38,000  Level Indianapolis Center
10:38PM 36.6344 -84.1517 356° North 520 598 38,000  Level Indianapolis Center
10:39PM 36.7783 -84.1622 357° North 515 593 38,000  Level Indianapolis Center
10:40PM 36.9214 -84.1733 356° North 512 589 38,000  Level Indianapolis Center
10:41PM 37.0622 -84.1844 356° North 506 582 38,000  Level Indianapolis Center
10:42PM 37.2044 -84.1956 356° North 508 585 38,000  Level Indianapolis Center
10:43PM 37.3706 -84.2083 357° North 508 585 38,000  Level Indianapolis Center
10:44PM 37.5117 -84.2211 356° North 506 582 38,000  Level Indianapolis Center
10:45PM 37.6572 -84.2297 357° North 518 596 38,000  Level Indianapolis Center
10:46PM 37.7975 -84.2442 355° North 499 574 38,000  Level Indianapolis Center
10:47PM 37.9389 -84.2544 357° North 503 579 38,000  Level Indianapolis Center
10:48PM 38.0825 -84.2647 357° North 510 587 38,000  Level Indianapolis Center
10:49PM 38.2272 -84.2744 357° North 517 595 38,000  Level Indianapolis Center
10:50PM 38.3719 -84.2867 356° North 518 596 38,000  Level Indianapolis Center
10:51PM 38.5158 -84.2981 356° North 518 596 38,000  Level Indianapolis Center
10:52PM 38.6536 -84.3044 358° North 524 603 38,000  Level Indianapolis Center
10:53PM 38.8031 -84.2839 North 534 615 38,000  Level Indianapolis Center
10:54PM 38.9542 -84.2594 North 539 620 38,000  Level Indianapolis Center
10:55PM 39.1039 -84.2358 North 539 620 38,000  Level Indianapolis Center
10:56PM 39.2550 -84.2131 North 540 621 38,000  Level Indianapolis Center
10:57PM 39.4033 -84.1881 North 533 613 38,000  Level Indianapolis Center
10:58PM 39.5536 -84.1647 North 536 617 38,000  Level Indianapolis Center
10:59PM 39.7033 -84.1397 North 534 615 38,000 -240 Level Indianapolis Center
11:00PM 39.8531 -84.1156 North 535 616 37,600 -540 Descending Indianapolis Center
11:01PM 40.0006 -84.0908 North 527 606 37,000 -300 Descending Indianapolis Center
11:02PM 40.1500 -84.0656 North 529 609 37,000  Level Indianapolis Center
11:03PM 40.2917 -84.0047 18° North 531 611 37,000  Level Indianapolis Center
11:04PM 40.3961 -83.8567 47° Northeast 540 621 37,000  Level Indianapolis Center
11:05PM 40.4906 -83.6950 52° Northeast 546 628 37,000  Level Indianapolis Center
11:06PM 40.5836 -83.5317 53° Northeast 551 634 37,000  Level Indianapolis Center
11:07PM 40.6489 -83.4211 52° Northeast 552 635 37,000  Level Cleveland Center
11:08PM 40.7422 -83.2606 52° Northeast 547 629 37,000  Level Cleveland Center
11:09PM 40.8336 -83.0997 53° Northeast 547 629 37,000  Level Cleveland Center
11:10PM 40.9311 -82.9275 53° Northeast 540 621 37,000  Level Cleveland Center
11:11PM 41.0219 -82.7656 53° Northeast 540 621 37,000  Level Cleveland Center
11:12PM 41.1125 -82.6033 53° Northeast 540 621 37,000  Level Cleveland Center
11:13PM 41.2047 -82.4406 53° Northeast 546 628 37,000  Level Cleveland Center
11:14PM 41.2950 -82.2772 54° Northeast 540 621 37,000  Level Cleveland Center
11:15PM 41.3786 -82.0997 58° Northeast 552 635 37,000  Level Cleveland Center
11:16PM 41.4247 -81.9289 70° East 540 621 37,000  Level Cleveland Center
11:17PM 41.4789 -81.7389 69° East 545 627 37,000  Level Cleveland Center
11:18PM 41.5392 -81.5292 69° East 550 633 37,000  Level Cleveland Center
11:19PM 41.5928 -81.3356 70° East 545 627 37,000  Level Cleveland Center
11:20PM 41.6481 -81.1417 69° East 545 627 37,000  Level Cleveland Center
11:21PM 41.7008 -80.9447 70° East 551 634 37,000  Level Cleveland Center
11:22PM 41.7556 -80.7503 69° East 551 634 37,000  Level Cleveland Center
11:23PM 41.8100 -80.5553 69° East 557 641 37,000  Level Cleveland Center
11:24PM 41.8617 -80.3600 70° East 557 641 37,000  Level Cleveland Center
11:25PM 41.9114 -80.1842 69° East 551 634 37,000  Level Cleveland Center
11:26PM 41.9667 -79.9717 71° East 544 626 37,000  Level Cleveland Center
11:27PM 42.0175 -79.7783 70° East 550 633 37,000  Level Cleveland Center
11:28PM 42.0703 -79.5819 70° East 550 633 37,000  Level Cleveland Center
11:29PM 42.0975 -79.3856 79° East 525 604 37,000  Level Cleveland Center
11:30PM 42.0747 -79.2125 100° East 478 550 37,000  Level Cleveland Center
11:31PM 42.0497 -79.0397 101° East 478 550 37,000  Level Cleveland Center
11:32PM 42.0222 -78.8642 102° East 478 550 37,000  Level Cleveland Center
11:33PM 41.9967 -78.6972 102° East 471 542 37,000  Level Cleveland Center
11:34PM 41.9708 -78.5303 102° East 460 529 37,000  Level Cleveland Center
11:36PM 41.9233 -78.2169 101° East 453 521 37,000  Level New York Center
11:37PM 41.8983 -78.0494 101° East 453 521 37,000  Level New York Center
11:38PM 41.8706 -77.8878 103° East 453 521 37,000  Level New York Center
11:39PM 41.8322 -77.7275 108° East 453 521 37,000  Level New York Center
11:40PM 41.7914 -77.5703 109° East 453 521 37,000  Level New York Center
11:41PM 41.7481 -77.4158 111° Southeast 453 521 37,000  Level New York Center
11:42PM 41.7064 -77.2614 110° East 448 516 37,000  Level New York Center
11:43PM 41.6650 -77.1019 109° East 443 510 37,000  Level New York Center
11:44PM 41.6214 -76.9422 110° East 443 510 37,000  Level New York Center
11:45PM 41.5775 -76.7831 110° East 443 510 37,000  Level New York Center
11:46PM 41.5336 -76.6211 110° East 437 503 37,000  Level New York Center
11:47PM 41.4911 -76.4650 110° East 437 503 37,000 -540 Level New York Center
11:48PM 41.4553 -76.3403 111° Southeast 443 510 36,000 -1,800 Descending New York Center
11:49PM 41.4039 -76.1478 110° East 452 520 33,500 -2,340 Descending New York Center
11:50PM 41.3586 -75.9922 111° Southeast 452 520 31,500 -1,860 Descending New York Center
11:51PM 41.3186 -75.8592 112° Southeast 452 520 29,800 -1,920 Descending New York Center
11:52PM 41.2753 -75.7014 110° East 452 520 27,700 -2,100 Descending New York Center
11:53PM 41.2256 -75.5461 113° Southeast 452 520 25,700 -1,980 Descending New York Center
11:54PM 41.1750 -75.3992 115° Southeast 440 506 23,800 -1,320 Descending New York Center
11:55PM 41.1244 -75.2525 115° Southeast 440 506 23,000 -420 Descending New York Center
11:56PM 41.0758 -75.1061 114° Southeast 435 501 23,000  Level New York Center
11:57PM 41.0269 -74.9600 114° Southeast 429 494 23,000  Level New York Center
11:58PM 40.9886 -74.8064 108° East 429 494 23,000  Level New York Center
11:59PM 40.9711 -74.6433 98° East 435 501 23,000  Level New York Center
12:00AM 40.9514 -74.4772 99° East 446 513 23,000 -1,140 Level New York Center
12:01AM 40.9356 -74.3172 97° East 451 519 20,700 -2,580 Descending New York Center
12:01AM 40.9167 -74.2167 104° East 440 506 19,100 -1,380 Descending New York TRACON
12:02AM 40.8667 -74.1167 123° Southeast 326 375 18,700 -1,200 Descending New York TRACON
12:03AM 40.8000 -74.0667 150° Southeast 297 342 16,700 -1,860 Descending New York TRACON
12:04AM 40.7167 -74.0167 156° South 295 339 15,000 -1,680 Descending New York TRACON
12:05AM 40.6500 -73.9833 159° South 262 302 13,400 -1,020 Descending New York TRACON
12:06AM 40.5833 -73.9333 150° Southeast 275 316 13,000 -240 Descending New York TRACON
12:07AM 40.5500 -73.8500 118° Southeast 336 387 13,000 -720 Level New York TRACON
12:08AM 40.5833 -73.7333 69° East 392 451 11,600 -1,620 Descending New York TRACON
12:09AM 40.6167 -73.6000 72° East 340 391 9,800 -2,040 Descending New York TRACON
12:10AM 40.6500 -73.5000 66° East 335 386 7,600 -2,100 Descending New York TRACON
12:11AM 40.7333 -73.4333 31° Northeast 331 381 5,600 -1,500 Descending New York TRACON
12:12AM 40.8000 -73.4667 339° North 236 272 4,600 -1,320 Descending New York TRACON
12:13AM 40.8167 -73.5333 288° West 210 242 3,000 -840 Descending New York TRACON
12:14AM 40.8167 -73.6000 270° West 200 230 3,000  Level New York TRACON
12:15AM 40.7833 -73.6667 237° Southwest 161 185 3,000 -300 Level New York TRACON
12:16AM 40.7500 -73.7000 217° Southwest 145 167 2,500 -600 Descending New York TRACON
12:17AM 40.7167 -73.7167 201° Southwest 115 132 1,900 -600 Descending New York TRACON
12:18AM 40.7000 -73.7333 217° Southwest 120 138 1,300 -660 Descending New York TRACON
12:19AM 40.6667 -73.7500 201° Southwest 121 139 600 -720 Descending New York TRACON
12:21AM 40.6333 -73.7667 221° Southwest  Level FlightAware Approximate